Pagrindinis puslapis
METAR-TAF:

METAR-TAF

Oro uostai :

Dresdenas, Vokietija

platuma: 51-08N, ilguma: 013-45E, Aukštis: 230 m

Dabartinis oras

Ataskaita buvo paskelbta 32 minutes, ne 10:50 UTC
Vėjas 11 kt iš Šiaurės Vakarų, svyruoja nuo Vakarų/Šiaurės Vakarų ir Šiaurės
Temperatūra 14°C
Drėgmė 67%
Slėgis 1020 hPa
Matomumas 10 km arba daugiau
Mažai debesys ne aukštis 2500 ft

METAR: EDDC 311050Z 32011KT 290V360 9999 FEW025 14/08 Q1020 NOSIG

Laikas: 13:22 (11:22 UTC)

Prognozė

Ataskaita buvo paskelbta 6 valandos ir 22 minutes, ne 05:00 UTC
Prognozė galioja nuo 31 metu 06 UTC su 01 metu 06 UTC
Vėjas 5 kt iš Šiaurės Vakarų
Matomumas 10 km arba daugiau
nėra debesų žemiau 1500 m ir nėra kamuolinių lietaus debesų
Tapsmas
nuo 31 metu 07 UTC su 31 metu 09 UTC
Vėjas 10 kt iš Šiaurės/Šiaurės Vakarų
Tapsmas
nuo 31 metu 17 UTC su 31 metu 19 UTC
Vėjas 4 kt iš Šiaurės

TAF: EDDC 310500Z 3106/0106 32005KT CAVOK BECMG 3107/3109 33010KT BECMG 3117/3119 35004KT

Orai ataskaitas ir orų prognozės (METAR, TAF).

turimą stotys yra geltonos ir raudonos taškus žemėlapyje.

Perkelti pele per norėdami pamatyti stoties vardą.

Tada spustelėkite, norėdami matyti oro stebėjimo ir prognozės.

Norėdami pakeisti žemėlapį: spustelėkite ant žalios mygtukų su juodo kryžiaus žemyn,; žalią mygtuką su brūkšneliu, jei norite nutolinti; arba žalių rodyklių gretimoms žemėlapius.


METAR-TAF: